Time;durP1;ratioP1;P1;durP2;ratioP2;P2;SDS_P1;SDS_P2;PMS_P1;PMS_P2;Temp;Humidity;BMP_temperature;BMP_pressure;BME280_temperature;BME280_humidity;BME280_pressure;Samples;Min_cycle;Max_cycle;Signal;HPM_P1;HPM_P2
2023/08/26 00:03:48;;;;;;;5.70;5.20;;;24.90;43.30;;;;;;10447339;28;20227;-71
2023/08/26 00:08:53;;;;;;;5.70;5.27;;;24.90;43.60;;;;;;10447022;28;20228;-71
2023/08/26 00:13:56;;;;;;;5.50;5.07;;;25.00;44.00;;;;;;10447638;28;20239;-71
2023/08/26 00:19:02;;;;;;;5.47;5.03;;;25.00;43.40;;;;;;10447036;28;20235;-71
2023/08/26 00:24:06;;;;;;;5.87;5.37;;;24.90;44.00;;;;;;10447271;28;20236;-71
2023/08/26 00:29:09;;;;;;;5.57;5.13;;;24.80;43.70;;;;;;10446875;28;20243;-71
2023/08/26 00:34:13;;;;;;;6.30;4.90;;;24.80;43.60;;;;;;10446863;28;20257;-71
2023/08/26 00:39:16;;;;;;;5.63;5.23;;;24.80;44.30;;;;;;10446771;28;20252;-71
2023/08/26 00:44:20;;;;;;;5.73;4.90;;;24.80;43.80;;;;;;10446435;28;20225;-70
2023/08/26 00:49:25;;;;;;;5.50;5.10;;;24.90;44.00;;;;;;10446227;28;20751;-71
2023/08/26 00:54:32;;;;;;;5.93;5.50;;;24.90;44.50;;;;;;10446334;28;20235;-71
2023/08/26 00:59:36;;;;;;;5.37;4.97;;;24.90;43.90;;;;;;10445597;28;20233;-70
2023/08/26 01:04:41;;;;;;;5.60;5.20;;;24.90;44.00;;;;;;10445703;28;20227;-70
2023/08/26 01:09:44;;;;;;;4.80;4.50;;;25.00;44.60;;;;;;10445098;28;20280;-71
2023/08/26 01:14:56;;;;;;;5.37;4.97;;;25.00;43.90;;;;;;10445241;28;20232;-71
2023/08/26 01:20:06;;;;;;;5.23;4.83;;;25.00;45.00;;;;;;10444622;28;20221;-71
2023/08/26 01:25:10;;;;;;;5.50;5.00;;;25.00;45.60;;;;;;10445481;28;20332;-71
2023/08/26 01:30:14;;;;;;;5.87;5.43;;;25.00;44.80;;;;;;10444955;28;20264;-71
2023/08/26 01:35:23;;;;;;;5.60;5.20;;;25.00;44.30;;;;;;10444549;28;20236;-71
2023/08/26 01:40:29;;;;;;;6.13;5.57;;;24.90;45.30;;;;;;10444849;28;20275;-70
2023/08/26 01:45:32;;;;;;;6.57;6.07;;;24.90;45.20;;;;;;10444465;28;20228;-71
2023/08/26 01:50:35;;;;;;;6.17;5.67;;;24.80;44.70;;;;;;10444302;28;20223;-71
2023/08/26 01:55:40;;;;;;;6.37;5.87;;;24.70;44.60;;;;;;10444231;28;20229;-71
2023/08/26 02:00:43;;;;;;;6.67;6.17;;;24.60;45.40;;;;;;10443769;28;20319;-71
2023/08/26 02:05:46;;;;;;;6.93;6.33;;;24.50;45.00;;;;;;10443898;28;20315;-71
2023/08/26 02:10:55;;;;;;;6.63;6.10;;;24.40;45.30;;;;;;10443385;28;20888;-71
2023/08/26 02:15:59;;;;;;;6.33;5.73;;;24.30;46.80;;;;;;10443449;28;20286;-72
2023/08/26 02:21:02;;;;;;;6.93;6.33;;;24.30;46.00;;;;;;10443362;28;20248;-72
2023/08/26 02:26:07;;;;;;;7.33;6.67;;;24.20;46.20;;;;;;10443199;28;20319;-71
2023/08/26 02:31:10;;;;;;;7.23;6.63;;;24.20;47.10;;;;;;10447141;28;20221;-71
2023/08/26 02:36:13;;;;;;;6.63;6.13;;;24.10;46.70;;;;;;10451778;28;20325;-71
2023/08/26 02:41:18;;;;;;;6.87;6.17;;;24.10;46.70;;;;;;10451343;28;20805;-72
2023/08/26 02:46:21;;;;;;;7.20;6.50;;;24.10;47.40;;;;;;10451203;28;20241;-72
2023/08/26 02:51:24;;;;;;;6.73;6.13;;;24.20;47.00;;;;;;10450878;28;20279;-72
2023/08/26 02:56:29;;;;;;;6.93;6.43;;;24.20;46.90;;;;;;10450783;28;20258;-72
2023/08/26 03:01:32;;;;;;;7.30;6.50;;;24.20;47.60;;;;;;10450421;28;20716;-72
2023/08/26 03:06:35;;;;;;;6.73;6.13;;;24.30;47.00;;;;;;10450329;28;20229;-72
2023/08/26 03:11:40;;;;;;;6.67;6.07;;;24.30;46.70;;;;;;10449967;28;20341;-71
2023/08/26 03:16:43;;;;;;;6.03;5.63;;;24.20;47.20;;;;;;10449898;28;20287;-72
2023/08/26 03:21:46;;;;;;;6.90;6.20;;;24.10;46.90;;;;;;10449718;28;20229;-71
2023/08/26 03:26:51;;;;;;;6.37;5.77;;;24.00;47.10;;;;;;10449761;28;20224;-72
2023/08/26 03:31:54;;;;;;;7.07;6.47;;;23.90;47.70;;;;;;10449313;28;20883;-72
2023/08/26 03:36:57;;;;;;;6.47;5.97;;;23.90;47.20;;;;;;10449374;28;20728;-73
2023/08/26 03:42:02;;;;;;;7.03;6.13;;;23.80;47.40;;;;;;10448310;28;20229;-73
2023/08/26 03:47:05;;;;;;;6.60;6.10;;;23.80;48.40;;;;;;10448298;28;20236;-72
2023/08/26 03:52:08;;;;;;;6.40;5.90;;;23.70;47.90;;;;;;10448752;28;20315;-72
2023/08/26 03:57:13;;;;;;;5.80;5.13;;;23.60;47.90;;;;;;10448440;28;20278;-72
2023/08/26 04:02:16;;;;;;;4.70;4.30;;;23.40;48.40;;;;;;10447907;28;20644;-72
2023/08/26 04:07:19;;;;;;;4.20;3.90;;;23.30;48.00;;;;;;10448143;28;20253;-72
2023/08/26 04:12:24;;;;;;;4.13;3.83;;;23.20;48.00;;;;;;10447872;28;20229;-72
2023/08/26 04:17:27;;;;;;;4.37;4.07;;;23.20;48.60;;;;;;10447357;28;20589;-72
2023/08/26 04:22:30;;;;;;;4.13;3.83;;;23.20;48.00;;;;;;10447791;28;20308;-71
2023/08/26 04:27:35;;;;;;;4.57;4.27;;;23.10;48.10;;;;;;10446985;28;20229;-72
2023/08/26 04:32:38;;;;;;;4.40;4.00;;;23.20;48.50;;;;;;10446894;28;20244;-73
2023/08/26 04:37:41;;;;;;;4.40;3.97;;;23.10;48.00;;;;;;10446857;28;21055;-74
2023/08/26 04:42:46;;;;;;;4.27;3.97;;;23.10;48.20;;;;;;10446527;28;20787;-74
2023/08/26 04:47:50;;;;;;;5.10;4.17;;;23.10;48.70;;;;;;10446618;28;20332;-74
2023/08/26 04:52:53;;;;;;;4.10;3.80;;;23.10;48.30;;;;;;10445270;28;20228;-73
2023/08/26 04:57:57;;;;;;;4.30;3.90;;;23.00;48.70;;;;;;10446401;28;20279;-72
2023/08/26 05:03:01;;;;;;;5.73;4.37;;;23.00;49.20;;;;;;10445724;28;20228;-72
2023/08/26 05:08:05;;;;;;;4.77;4.37;;;23.10;49.00;;;;;;10445406;28;20229;-72
2023/08/26 05:13:09;;;;;;;4.73;4.37;;;23.20;49.00;;;;;;10445923;28;20233;-73
2023/08/26 05:18:13;;;;;;;4.73;4.27;;;23.20;49.30;;;;;;10445102;28;20611;-72
2023/08/26 05:23:16;;;;;;;4.67;4.37;;;23.30;48.80;;;;;;10445199;28;20666;-73
2023/08/26 05:28:20;;;;;;;5.10;4.33;;;23.30;48.90;;;;;;10445222;28;20328;-72
2023/08/26 05:33:24;;;;;;;4.77;4.37;;;23.30;49.50;;;;;;10444701;28;20227;-72
2023/08/26 05:38:27;;;;;;;4.23;3.93;;;23.30;49.00;;;;;;10444814;28;20671;-72
2023/08/26 05:43:31;;;;;;;5.10;4.70;;;23.30;49.00;;;;;;10444583;28;20239;-72
2023/08/26 05:48:35;;;;;;;4.93;4.23;;;23.30;49.90;;;;;;10444173;28;20660;-72
2023/08/26 05:53:38;;;;;;;4.87;4.37;;;23.30;49.90;;;;;;10444397;28;20315;-72
2023/08/26 05:58:42;;;;;;;4.63;4.23;;;23.30;49.30;;;;;;10443638;28;20316;-72
2023/08/26 06:03:46;;;;;;;4.47;4.07;;;23.30;50.00;;;;;;10443810;28;20229;-72
2023/08/26 06:08:49;;;;;;;4.90;4.50;;;23.30;49.70;;;;;;10443992;28;20237;-72
2023/08/26 06:13:53;;;;;;;4.97;4.47;;;23.30;49.80;;;;;;10443700;28;20775;-72
2023/08/26 06:18:56;;;;;;;4.73;4.33;;;23.30;50.70;;;;;;10443936;28;20235;-72
2023/08/26 06:24:00;;;;;;;4.40;4.00;;;23.20;50.10;;;;;;10443403;28;20259;-72
2023/08/26 06:29:04;;;;;;;4.40;4.00;;;23.30;50.20;;;;;;10443299;28;20813;-72
2023/08/26 06:34:08;;;;;;;4.20;3.90;;;23.30;51.30;;;;;;10443341;28;20724;-72
2023/08/26 06:39:11;;;;;;;4.23;3.90;;;23.40;50.60;;;;;;10442606;28;20242;-72
2023/08/26 06:44:15;;;;;;;4.50;4.10;;;23.40;50.30;;;;;;10443245;28;20237;-72
2023/08/26 06:49:19;;;;;;;4.27;3.90;;;23.50;51.20;;;;;;10442895;28;20841;-72
2023/08/26 06:54:22;;;;;;;4.53;4.13;;;23.50;50.90;;;;;;10443150;28;20251;-72
2023/08/26 06:59:26;;;;;;;4.43;4.03;;;23.50;51.20;;;;;;10443207;28;20311;-72
2023/08/26 07:04:30;;;;;;;4.43;4.03;;;23.70;52.00;;;;;;10443076;28;20229;-72
2023/08/26 07:09:33;;;;;;;4.77;4.37;;;23.80;50.80;;;;;;10442621;28;20834;-72
2023/08/26 07:14:38;;;;;;;4.33;4.03;;;23.90;50.60;;;;;;10443008;28;20646;-72
2023/08/26 07:19:41;;;;;;;5.70;5.30;;;24.10;51.10;;;;;;10448440;28;20235;-71
2023/08/26 07:24:45;;;;;;;4.93;4.53;;;24.10;50.60;;;;;;10450183;28;20233;-71
2023/08/26 07:29:49;;;;;;;4.63;4.23;;;24.20;50.60;;;;;;10449170;28;20569;-71
2023/08/26 07:34:53;;;;;;;5.27;4.77;;;24.30;51.00;;;;;;10449359;28;20316;-71
2023/08/26 07:39:56;;;;;;;5.47;5.07;;;24.40;50.40;;;;;;10449372;28;20225;-70
2023/08/26 07:45:01;;;;;;;5.20;4.80;;;24.50;50.60;;;;;;10448850;28;20239;-70
2023/08/26 07:50:05;;;;;;;5.53;5.03;;;24.50;51.60;;;;;;10448805;28;20847;-71
2023/08/26 07:55:09;;;;;;;6.17;5.67;;;24.70;50.40;;;;;;10448875;28;20233;-71
2023/08/26 08:00:15;;;;;;;6.00;5.43;;;24.80;50.20;;;;;;10448268;28;20602;-71
2023/08/26 08:05:18;;;;;;;7.80;5.47;;;24.90;49.70;;;;;;10448430;28;20228;-71
2023/08/26 08:10:21;;;;;;;6.47;5.87;;;25.00;50.20;;;;;;10448264;28;20229;-70
2023/08/26 08:15:26;;;;;;;6.03;5.53;;;25.20;49.70;;;;;;10447623;28;20232;-71
2023/08/26 08:20:30;;;;;;;5.70;5.20;;;25.30;49.60;;;;;;10447697;28;20589;-71
2023/08/26 08:25:33;;;;;;;5.80;5.30;;;25.40;50.20;;;;;;10447165;28;20698;-70
2023/08/26 08:30:38;;;;;;;5.50;5.10;;;25.60;49.60;;;;;;10447267;28;20221;-70
2023/08/26 08:35:41;;;;;;;5.70;5.20;;;25.80;48.40;;;;;;10447069;28;20232;-70
2023/08/26 08:40:44;;;;;;;7.07;6.23;;;25.90;48.20;;;;;;10446903;28;20229;-70
2023/08/26 08:45:52;;;;;;;4.93;4.50;;;26.10;47.20;;;;;;10446313;28;20752;-71
2023/08/26 08:50:58;;;;;;;5.20;4.80;;;26.10;45.70;;;;;;10446507;28;20788;-70
2023/08/26 08:56:01;;;;;;;4.97;4.50;;;26.20;46.50;;;;;;10446439;28;20229;-70
2023/08/26 09:01:06;;;;;;;4.70;4.40;;;26.30;46.90;;;;;;10445882;28;20225;-71
2023/08/26 09:06:10;;;;;;;4.93;4.53;;;26.50;45.30;;;;;;10445548;28;21001;-71
2023/08/26 09:11:16;;;;;;;5.47;4.97;;;26.60;46.20;;;;;;10445919;28;20225;-71
2023/08/26 09:16:29;;;;;;;5.50;4.90;;;26.80;45.80;;;;;;10445190;28;20238;-70
2023/08/26 09:21:33;;;;;;;5.43;4.33;;;26.90;43.40;;;;;;10445621;28;20248;-70
2023/08/26 09:26:36;;;;;;;5.60;4.37;;;26.90;43.70;;;;;;10445380;28;20228;-70
2023/08/26 09:31:47;;;;;;;5.17;4.67;;;26.90;44.10;;;;;;10444675;28;20299;-70
2023/08/26 09:36:50;;;;;;;4.90;4.40;;;26.90;43.00;;;;;;10444876;28;20224;-70
2023/08/26 09:41:56;;;;;;;5.30;4.90;;;26.90;43.80;;;;;;10444186;28;20312;-70
2023/08/26 09:47:06;;;;;;;5.03;4.63;;;27.00;43.60;;;;;;10444168;28;20287;-70
2023/08/26 09:52:10;;;;;;;4.87;4.43;;;27.00;44.00;;;;;;10444453;28;20228;-70
2023/08/26 09:57:13;;;;;;;5.73;5.20;;;27.20;44.20;;;;;;10443950;28;20860;-70
2023/08/26 10:02:22;;;;;;;5.50;4.63;;;27.30;43.50;;;;;;10443661;28;20614;-70
2023/08/26 10:07:26;;;;;;;4.83;4.47;;;27.40;43.20;;;;;;10443632;28;20232;-70
2023/08/26 10:12:36;;;;;;;4.97;4.57;;;27.50;42.60;;;;;;10444289;28;20229;-71
2023/08/26 10:17:44;;;;;;;4.60;4.07;;;27.70;42.70;;;;;;10443710;28;20229;-70
2023/08/26 10:22:48;;;;;;;5.03;4.60;;;27.90;41.90;;;;;;10443804;28;20225;-70
2023/08/26 10:27:52;;;;;;;4.83;4.43;;;28.10;42.40;;;;;;10443713;28;20238;-70
2023/08/26 10:33:01;;;;;;;4.50;4.10;;;28.30;42.00;;;;;;10443096;28;20224;-71
2023/08/26 10:38:12;;;;;;;4.40;3.73;;;28.50;40.30;;;;;;10443155;28;20303;-71
2023/08/26 10:43:15;;;;;;;5.10;4.37;;;28.70;39.20;;;;;;10443079;28;21023;-70
2023/08/26 10:48:20;;;;;;;4.50;4.10;;;28.80;40.20;;;;;;10443050;28;20312;-70
2023/08/26 10:53:23;;;;;;;4.50;4.10;;;28.90;39.50;;;;;;10447370;28;20291;-71
2023/08/26 10:58:42;;;;;;;3.83;3.53;;;28.90;39.80;;;;;;10450949;28;20257;-70
2023/08/26 11:03:47;;;;;;;3.80;3.40;;;28.90;37.60;;;;;;10450480;28;20232;-71
2023/08/26 11:08:54;;;;;;;3.60;3.30;;;28.90;37.60;;;;;;10450338;28;20233;-70
2023/08/26 11:13:57;;;;;;;3.60;3.30;;;28.90;37.30;;;;;;10450176;28;20303;-71
2023/08/26 11:19:02;;;;;;;7.93;3.70;;;29.00;38.40;;;;;;10449734;28;20803;-70
2023/08/26 11:24:05;;;;;;;6.63;3.70;;;29.10;37.80;;;;;;10449788;28;20229;-70
2023/08/26 11:29:11;;;;;;;4.50;4.07;;;29.10;38.50;;;;;;10449825;28;20225;-70
2023/08/26 11:34:21;;;;;;;5.37;3.67;;;29.20;37.50;;;;;;10449292;28;20302;-70
2023/08/26 11:39:24;;;;;;;4.57;3.90;;;29.20;37.60;;;;;;10449406;28;20237;-70
2023/08/26 11:44:27;;;;;;;3.90;3.70;;;29.20;38.30;;;;;;10449039;28;20232;-70
2023/08/26 11:49:33;;;;;;;4.20;3.90;;;29.30;37.80;;;;;;10448549;28;20312;-70
2023/08/26 11:54:36;;;;;;;4.30;3.90;;;29.30;36.70;;;;;;10448711;28;20225;-70
2023/08/26 11:59:39;;;;;;;3.87;3.43;;;29.30;37.10;;;;;;10448400;28;20313;-70
2023/08/26 12:04:45;;;;;;;4.63;3.63;;;29.40;37.00;;;;;;10447961;28;20236;-70
2023/08/26 12:09:49;;;;;;;3.60;3.30;;;29.40;35.60;;;;;;10447988;28;20244;-70
2023/08/26 12:15:05;;;;;;;4.80;3.37;;;29.50;36.70;;;;;;10447715;28;20220;-70
2023/08/26 12:20:21;;;;;;;4.73;3.73;;;29.50;35.90;;;;;;10447844;28;20263;-70
2023/08/26 12:25:27;;;;;;;3.80;3.50;;;29.60;35.50;;;;;;10447597;28;20252;-70
2023/08/26 12:30:30;;;;;;;4.37;3.70;;;29.70;35.90;;;;;;10447184;28;20236;-70
2023/08/26 12:35:37;;;;;;;4.13;3.83;;;29.70;35.90;;;;;;10446926;28;20327;-70
2023/08/26 12:40:45;;;;;;;3.70;3.40;;;29.70;35.30;;;;;;10447009;28;20247;-70
2023/08/26 12:45:49;;;;;;;3.90;3.60;;;29.70;35.60;;;;;;10446033;28;20700;-70
2023/08/26 12:50:54;;;;;;;3.87;3.40;;;29.70;35.20;;;;;;10446353;28;20641;-70
2023/08/26 12:55:59;;;;;;;3.80;3.50;;;29.70;34.50;;;;;;10446455;28;20229;-70
2023/08/26 13:01:02;;;;;;;3.87;3.47;;;29.80;35.80;;;;;;10445598;28;20247;-70
2023/08/26 13:06:07;;;;;;;3.90;3.60;;;29.70;35.20;;;;;;10445830;28;20282;-70
2023/08/26 13:11:10;;;;;;;6.10;3.67;;;29.70;34.70;;;;;;10445470;28;20225;-70
2023/08/26 13:16:13;;;;;;;4.47;3.43;;;29.70;35.20;;;;;;10444786;28;20239;-70
2023/08/26 13:21:18;;;;;;;4.40;3.83;;;29.80;35.10;;;;;;10445266;28;20282;-70
2023/08/26 13:26:21;;;;;;;4.57;4.17;;;29.70;34.70;;;;;;10444981;28;20228;-70
2023/08/26 13:31:24;;;;;;;4.73;4.33;;;29.80;35.00;;;;;;10444939;28;20231;-70
2023/08/26 13:36:29;;;;;;;4.70;4.30;;;29.80;35.30;;;;;;10445008;28;20225;-70
2023/08/26 13:41:51;;;;;;;4.50;4.20;;;29.80;34.60;;;;;;10444953;28;20221;-70
2023/08/26 13:46:54;;;;;;;4.70;4.30;;;29.80;35.30;;;;;;10444113;28;20721;-70
2023/08/26 13:51:59;;;;;;;5.43;4.50;;;29.70;35.20;;;;;;10444559;28;20266;-70
2023/08/26 13:57:02;;;;;;;4.33;3.93;;;29.70;35.20;;;;;;10444246;28;20239;-70
2023/08/26 14:02:06;;;;;;;4.17;3.80;;;29.50;34.70;;;;;;10443992;28;20237;-70
2023/08/26 14:07:11;;;;;;;4.73;4.13;;;29.40;34.70;;;;;;10443908;28;20286;-70
2023/08/26 14:12:14;;;;;;;5.13;3.70;;;29.30;34.30;;;;;;10444025;28;20315;-70
2023/08/26 14:17:19;;;;;;;4.50;3.70;;;29.20;34.50;;;;;;10443571;28;20247;-70
2023/08/26 14:22:23;;;;;;;4.53;4.13;;;29.10;34.50;;;;;;10443693;28;20347;-70
2023/08/26 14:27:26;;;;;;;4.43;4.10;;;29.00;34.90;;;;;;10447972;28;20235;-70
2023/08/26 14:32:29;;;;;;;4.83;4.33;;;28.80;35.30;;;;;;10452151;28;20708;-70
2023/08/26 14:37:34;;;;;;;4.87;4.37;;;28.70;35.50;;;;;;10451630;28;20298;-70
2023/08/26 14:42:37;;;;;;;5.13;4.37;;;28.50;35.80;;;;;;10451394;28;20797;-72
2023/08/26 14:47:43;;;;;;;4.67;4.00;;;28.20;35.90;;;;;;10451076;28;20249;-71
2023/08/26 14:52:47;;;;;;;4.20;2.90;;;27.80;36.40;;;;;;10451310;28;20725;-73
2023/08/26 14:57:51;;;;;;;3.93;2.50;;;27.20;36.50;;;;;;10450775;28;20228;-72
2023/08/26 15:02:54;;;;;;;4.53;2.50;;;26.60;35.30;;;;;;10450455;28;20304;-72
2023/08/26 15:07:58;;;;;;;3.10;2.03;;;25.90;35.90;;;;;;10450412;28;20489;-72
2023/08/26 15:13:02;;;;;;;1.50;1.40;;;25.20;36.80;;;;;;10450317;28;20267;-72
2023/08/26 15:18:06;;;;;;;3.17;1.73;;;24.60;37.20;;;;;;10450095;28;20678;-72
2023/08/26 15:23:10;;;;;;;3.57;1.60;;;24.00;38.30;;;;;;10450126;28;20233;-72
2023/08/26 15:28:14;;;;;;;2.30;1.83;;;23.50;39.60;;;;;;10449957;28;20237;-72
2023/08/26 15:33:18;;;;;;;3.63;2.00;;;23.30;39.70;;;;;;10449299;28;20229;-71
2023/08/26 15:38:23;;;;;;;3.47;1.93;;;23.40;40.40;;;;;;10448714;28;20314;-72
2023/08/26 15:43:27;;;;;;;3.17;1.70;;;23.40;40.70;;;;;;10448691;28;20221;-72
2023/08/26 15:48:30;;;;;;;2.77;1.70;;;23.50;39.70;;;;;;10447992;28;20653;-72
2023/08/26 15:53:35;;;;;;;2.83;1.93;;;23.60;39.70;;;;;;10449079;28;20229;-72
2023/08/26 15:58:38;;;;;;;2.90;2.13;;;23.70;40.20;;;;;;10448633;28;20242;-71
2023/08/26 16:03:41;;;;;;;2.50;2.00;;;23.70;39.80;;;;;;10448355;28;20233;-71
2023/08/26 16:08:46;;;;;;;4.90;2.00;;;23.80;40.00;;;;;;10448673;28;20225;-72
2023/08/26 16:13:49;;;;;;;4.60;2.30;;;23.80;41.00;;;;;;10448413;28;20300;-71
2023/08/26 16:18:52;;;;;;;4.43;2.67;;;23.90;40.50;;;;;;10447966;28;20308;-72
2023/08/26 16:23:56;;;;;;;2.53;2.17;;;23.90;40.10;;;;;;10447803;28;20224;-71
2023/08/26 16:29:00;;;;;;;4.10;2.10;;;23.80;41.00;;;;;;10447440;28;20225;-71
2023/08/26 16:34:03;;;;;;;2.70;2.10;;;23.70;40.60;;;;;;10436582;28;20276;-71
2023/08/26 16:39:08;;;;;;;2.50;2.23;;;23.60;41.00;;;;;;10444790;28;20709;-70
2023/08/26 16:44:11;;;;;;;4.77;2.40;;;23.50;41.90;;;;;;10431321;28;20268;-71
2023/08/26 16:49:14;;;;;;;3.73;2.73;;;23.50;42.10;;;;;;10446548;28;20233;-71
2023/08/26 16:54:19;;;;;;;2.63;2.43;;;23.40;42.30;;;;;;10446248;28;21169;-70
2023/08/26 16:59:24;;;;;;;4.90;2.87;;;23.50;42.80;;;;;;10446569;28;20232;-71
2023/08/26 17:04:27;;;;;;;3.27;2.97;;;23.40;42.50;;;;;;10446088;28;20713;-72
2023/08/26 17:09:32;;;;;;;3.67;2.87;;;23.30;42.70;;;;;;10445252;28;20229;-72
2023/08/26 17:14:35;;;;;;;4.13;2.73;;;23.20;43.80;;;;;;10445730;28;20249;-72
2023/08/26 17:19:38;;;;;;;3.27;2.87;;;23.10;43.30;;;;;;10445250;28;20228;-72
2023/08/26 17:24:43;;;;;;;3.20;2.87;;;23.10;43.40;;;;;;10445411;28;20291;-72
2023/08/26 17:29:49;;;;;;;3.40;3.00;;;23.10;44.50;;;;;;10445168;28;20228;-72
2023/08/26 17:34:52;;;;;;;3.50;2.80;;;23.10;43.80;;;;;;10444917;28;20224;-72
2023/08/26 17:39:56;;;;;;;4.27;3.13;;;23.10;43.80;;;;;;10444979;28;20228;-72
2023/08/26 17:45:00;;;;;;;4.50;3.00;;;22.90;44.50;;;;;;10444542;28;20248;-72
2023/08/26 17:50:03;;;;;;;3.47;3.03;;;22.80;44.00;;;;;;10444071;28;20243;-72
2023/08/26 17:55:09;;;;;;;3.50;2.80;;;22.80;44.20;;;;;;10444547;28;20231;-72
2023/08/26 18:00:13;;;;;;;2.90;2.60;;;22.70;45.20;;;;;;10443612;28;20731;-72
2023/08/26 18:05:17;;;;;;;3.10;2.80;;;22.60;44.70;;;;;;10443716;28;20237;-72
2023/08/26 18:10:22;;;;;;;2.70;2.50;;;22.50;44.60;;;;;;10444252;28;20656;-71
2023/08/26 18:15:25;;;;;;;2.50;2.30;;;22.40;45.20;;;;;;10444053;28;20239;-72
2023/08/26 18:20:28;;;;;;;2.50;2.30;;;22.30;44.70;;;;;;10444207;28;20239;-72
2023/08/26 18:25:33;;;;;;;2.10;2.00;;;22.20;44.70;;;;;;10443912;28;20311;-72
2023/08/26 18:30:36;;;;;;;2.17;1.97;;;22.00;45.60;;;;;;10443393;28;20229;-72
2023/08/26 18:35:39;;;;;;;3.70;2.20;;;22.00;45.10;;;;;;10443536;28;20237;-71
2023/08/26 18:40:44;;;;;;;4.53;2.10;;;21.90;45.20;;;;;;10443293;28;20225;-72
2023/08/26 18:45:47;;;;;;;2.40;2.20;;;21.90;45.90;;;;;;10443656;28;20236;-72
2023/08/26 18:51:01;;;;;;;2.70;2.33;;;21.80;45.30;;;;;;10443361;28;20316;-72
2023/08/26 18:56:05;;;;;;;3.30;2.10;;;21.80;46.50;;;;;;10443014;28;20256;-72
2023/08/26 19:01:10;;;;;;;3.23;2.17;;;21.70;45.90;;;;;;10443016;28;20235;-71
2023/08/26 19:06:13;;;;;;;2.57;2.30;;;21.70;45.30;;;;;;10442674;28;20236;-72
2023/08/26 19:11:19;;;;;;;2.90;2.30;;;21.60;45.30;;;;;;10443304;28;20225;-71
2023/08/26 19:16:22;;;;;;;3.13;2.10;;;21.50;46.30;;;;;;10449293;28;20312;-71
2023/08/26 19:21:25;;;;;;;2.30;2.03;;;21.50;45.80;;;;;;10450326;28;20650;-72
2023/08/26 19:26:31;;;;;;;3.10;2.10;;;21.40;46.00;;;;;;10450615;28;20317;-71
2023/08/26 19:31:35;;;;;;;2.70;2.50;;;21.40;46.70;;;;;;10449925;28;20243;-71
2023/08/26 19:36:38;;;;;;;3.17;2.40;;;21.50;47.00;;;;;;10449748;28;20600;-71
2023/08/26 19:41:43;;;;;;;2.80;2.43;;;21.50;46.30;;;;;;10449735;28;20315;-72
2023/08/26 19:46:46;;;;;;;2.93;2.53;;;21.50;47.00;;;;;;10449096;28;20225;-71
2023/08/26 19:51:50;;;;;;;3.47;2.40;;;21.60;46.30;;;;;;10449290;28;20713;-71
2023/08/26 19:57:05;;;;;;;3.23;2.63;;;21.60;46.30;;;;;;10448833;28;20231;-71
2023/08/26 20:02:08;;;;;;;3.00;2.50;;;21.60;47.40;;;;;;10448278;28;20680;-71
2023/08/26 20:07:12;;;;;;;3.30;2.63;;;21.60;46.60;;;;;;10448412;28;20259;-71
2023/08/26 20:12:16;;;;;;;2.87;2.30;;;21.60;46.70;;;;;;10448404;28;20278;-71
2023/08/26 20:17:19;;;;;;;3.10;2.67;;;21.60;47.50;;;;;;10448364;28;20237;-71
2023/08/26 20:22:22;;;;;;;2.50;2.30;;;21.60;47.00;;;;;;10448060;28;20303;-71
2023/08/26 20:27:27;;;;;;;4.93;2.60;;;21.60;47.00;;;;;;10447262;28;20228;-71
2023/08/26 20:32:30;;;;;;;3.23;2.43;;;21.60;47.70;;;;;;10447692;28;20961;-72
2023/08/26 20:37:35;;;;;;;3.13;2.83;;;21.70;47.80;;;;;;10447236;28;20233;-71
2023/08/26 20:42:41;;;;;;;3.33;2.60;;;21.70;47.10;;;;;;10447286;28;20229;-71
2023/08/26 20:47:44;;;;;;;3.30;2.57;;;21.70;47.70;;;;;;10446489;28;20317;-71
2023/08/26 20:52:47;;;;;;;4.87;2.67;;;21.80;47.30;;;;;;10446691;28;20228;-71
2023/08/26 20:57:52;;;;;;;2.63;2.43;;;21.80;47.00;;;;;;10446596;28;20252;-71
2023/08/26 21:02:55;;;;;;;3.70;2.70;;;21.80;47.60;;;;;;10446109;28;20231;-71
2023/08/26 21:07:59;;;;;;;3.67;2.73;;;21.80;47.10;;;;;;10446226;28;20235;-71
2023/08/26 21:13:04;;;;;;;3.03;2.80;;;21.90;47.40;;;;;;10445768;28;20272;-71
2023/08/26 21:18:07;;;;;;;2.80;2.60;;;21.90;47.90;;;;;;10445316;28;20634;-71
2023/08/26 21:23:11;;;;;;;3.37;2.77;;;21.90;47.30;;;;;;10445913;28;20239;-71
2023/08/26 21:28:16;;;;;;;3.20;2.60;;;22.00;47.30;;;;;;10445426;28;20249;-71
2023/08/26 21:33:19;;;;;;;3.07;2.77;;;22.00;47.50;;;;;;10444916;28;20623;-71
2023/08/26 21:38:22;;;;;;;2.60;2.40;;;22.00;47.20;;;;;;10444634;28;20232;-71
2023/08/26 21:43:27;;;;;;;2.77;2.57;;;21.90;47.10;;;;;;10444935;28;20233;-71
2023/08/26 21:48:30;;;;;;;6.53;3.23;;;22.00;47.60;;;;;;10444299;28;20233;-71
2023/08/26 21:53:34;;;;;;;2.00;1.90;;;22.00;47.40;;;;;;10444512;28;20319;-70
2023/08/26 21:58:39;;;;;;;2.83;2.63;;;22.10;47.30;;;;;;10444097;28;20232;-71
2023/08/26 22:03:42;;;;;;;2.67;2.40;;;22.10;47.70;;;;;;10444206;28;20227;-71
2023/08/26 22:08:46;;;;;;;3.33;2.97;;;22.20;47.30;;;;;;10443926;28;20312;-71
2023/08/26 22:13:50;;;;;;;3.03;2.50;;;22.20;47.30;;;;;;10444233;28;20782;-71
2023/08/26 22:18:53;;;;;;;3.70;3.40;;;22.30;47.60;;;;;;10444021;28;20233;-71
2023/08/26 22:23:56;;;;;;;4.70;3.10;;;22.30;47.10;;;;;;10444138;28;20235;-71
2023/08/26 22:29:01;;;;;;;3.40;3.10;;;22.30;46.80;;;;;;10444031;28;20231;-71
2023/08/26 22:34:04;;;;;;;3.53;3.13;;;22.30;47.20;;;;;;10443643;28;20370;-71
2023/08/26 22:39:07;;;;;;;4.83;2.60;;;22.20;46.90;;;;;;10443982;28;20233;-71
2023/08/26 22:44:23;;;;;;;2.67;2.47;;;22.10;47.00;;;;;;10443983;28;20235;-71
2023/08/26 22:49:26;;;;;;;2.70;2.17;;;22.10;47.70;;;;;;10449258;28;20299;-71
2023/08/26 22:54:29;;;;;;;3.10;2.33;;;22.10;47.40;;;;;;10451095;28;20927;-71
2023/08/26 22:59:34;;;;;;;3.17;2.70;;;22.20;47.50;;;;;;10451141;28;20746;-70
2023/08/26 23:04:37;;;;;;;2.70;2.50;;;22.20;47.70;;;;;;10451431;28;20227;-70
2023/08/26 23:09:40;;;;;;;3.10;2.80;;;22.30;47.50;;;;;;10450821;28;20642;-71
2023/08/26 23:14:45;;;;;;;3.50;2.90;;;22.30;47.20;;;;;;10450268;28;20799;-70
2023/08/26 23:19:48;;;;;;;3.33;2.60;;;22.30;47.50;;;;;;10450437;28;20235;-71
2023/08/26 23:24:51;;;;;;;3.17;2.97;;;22.30;47.00;;;;;;10450346;28;20229;-70
2023/08/26 23:29:56;;;;;;;3.70;2.60;;;22.30;46.90;;;;;;10449829;28;20308;-71
2023/08/26 23:35:04;;;;;;;3.93;3.00;;;22.20;47.20;;;;;;10450171;28;20221;-71
2023/08/26 23:40:10;;;;;;;3.47;3.17;;;22.20;47.20;;;;;;10449336;28;20311;-70
2023/08/26 23:45:15;;;;;;;3.73;3.17;;;22.20;47.30;;;;;;10449360;28;20333;-71
2023/08/26 23:50:20;;;;;;;4.13;3.43;;;22.20;47.30;;;;;;10449387;28;20235;-71
2023/08/26 23:55:23;;;;;;;3.60;3.30;;;22.20;47.30;;;;;;10448781;28;20267;-71
